Terminal Aerodrome Forecast
Issued by NWS

Home | Current Version | Previous Version | Text Only | Print | Product List | Glossary On
Versions: 1 2 3 4 5 6 7 8 9 10 11 12
000
FTUS45 KLKN 251720
TAFELY
TAF
KELY 251720Z 2518/2618 35008KT 6SM -RASN BKN025 BKN040 OVC050
     FM251900 35008KT P6SM SCT030 BKN040 BKN070
     FM260100 34008KT P6SM SCT030 BKN180=

USA.gov is the U.S. government's official web portal to all federal, state and local government web resources and services.